sensor_id;sensor_type;location;lat;lon;timestamp;P1;durP1;ratioP1;P2;durP2;ratioP2
72601;SDS011;60644;55.858;37.390;2023-01-08T00:02:23;4.65;;;1.23;;
72601;SDS011;60644;55.858;37.390;2023-01-08T00:04:49;9.82;;;1.83;;
72601;SDS011;60644;55.858;37.390;2023-01-08T00:07:15;3.27;;;0.87;;
72601;SDS011;60644;55.858;37.390;2023-01-08T00:09:41;4.50;;;2.35;;
72601;SDS011;60644;55.858;37.390;2023-01-08T00:12:06;8.43;;;2.07;;
72601;SDS011;60644;55.858;37.390;2023-01-08T00:14:32;4.57;;;1.55;;
72601;SDS011;60644;55.858;37.390;2023-01-08T00:16:58;6.32;;;1.58;;
72601;SDS011;60644;55.858;37.390;2023-01-08T00:19:24;7.23;;;1.73;;
72601;SDS011;60644;55.858;37.390;2023-01-08T00:21:50;5.68;;;1.00;;
72601;SDS011;60644;55.858;37.390;2023-01-08T00:24:16;4.27;;;1.93;;
72601;SDS011;60644;55.858;37.390;2023-01-08T00:26:42;3.85;;;1.13;;
72601;SDS011;60644;55.858;37.390;2023-01-08T00:29:07;3.03;;;0.73;;
72601;SDS011;60644;55.858;37.390;2023-01-08T00:31:34;8.55;;;1.90;;
72601;SDS011;60644;55.858;37.390;2023-01-08T00:33:59;5.47;;;1.50;;
72601;SDS011;60644;55.858;37.390;2023-01-08T00:36:25;2.87;;;0.40;;
72601;SDS011;60644;55.858;37.390;2023-01-08T00:38:51;8.65;;;1.58;;
72601;SDS011;60644;55.858;37.390;2023-01-08T00:41:17;4.97;;;1.40;;
72601;SDS011;60644;55.858;37.390;2023-01-08T00:43:43;4.03;;;0.85;;
72601;SDS011;60644;55.858;37.390;2023-01-08T00:46:09;5.25;;;1.27;;
72601;SDS011;60644;55.858;37.390;2023-01-08T00:48:34;3.20;;;0.83;;
72601;SDS011;60644;55.858;37.390;2023-01-08T00:51:03;2.97;;;0.85;;
72601;SDS011;60644;55.858;37.390;2023-01-08T00:53:30;6.95;;;2.20;;
72601;SDS011;60644;55.858;37.390;2023-01-08T00:56:00;6.15;;;1.58;;
72601;SDS011;60644;55.858;37.390;2023-01-08T00:58:27;8.93;;;1.05;;
72601;SDS011;60644;55.858;37.390;2023-01-08T01:00:54;5.15;;;1.67;;
72601;SDS011;60644;55.858;37.390;2023-01-08T01:03:20;8.10;;;1.90;;
72601;SDS011;60644;55.858;37.390;2023-01-08T01:05:45;10.57;;;4.53;;
72601;SDS011;60644;55.858;37.390;2023-01-08T01:08:11;7.85;;;1.63;;
72601;SDS011;60644;55.858;37.390;2023-01-08T01:10:38;6.45;;;1.50;;
72601;SDS011;60644;55.858;37.390;2023-01-08T01:13:04;6.55;;;1.45;;
72601;SDS011;60644;55.858;37.390;2023-01-08T01:15:30;13.13;;;3.43;;
72601;SDS011;60644;55.858;37.390;2023-01-08T01:17:56;5.10;;;1.38;;
72601;SDS011;60644;55.858;37.390;2023-01-08T01:20:22;7.95;;;1.95;;
72601;SDS011;60644;55.858;37.390;2023-01-08T01:22:48;4.60;;;1.17;;
72601;SDS011;60644;55.858;37.390;2023-01-08T01:25:15;5.03;;;1.20;;
72601;SDS011;60644;55.858;37.390;2023-01-08T01:27:41;1.50;;;0.90;;
72601;SDS011;60644;55.858;37.390;2023-01-08T01:30:07;2.43;;;0.60;;
72601;SDS011;60644;55.858;37.390;2023-01-08T01:32:33;5.03;;;0.98;;
72601;SDS011;60644;55.858;37.390;2023-01-08T01:34:59;4.28;;;1.30;;
72601;SDS011;60644;55.858;37.390;2023-01-08T01:37:25;6.90;;;1.80;;
72601;SDS011;60644;55.858;37.390;2023-01-08T01:39:52;8.30;;;1.30;;
72601;SDS011;60644;55.858;37.390;2023-01-08T01:42:18;3.28;;;0.95;;
72601;SDS011;60644;55.858;37.390;2023-01-08T01:45:05;11.70;;;2.40;;
72601;SDS011;60644;55.858;37.390;2023-01-08T01:47:41;4.70;;;1.55;;
72601;SDS011;60644;55.858;37.390;2023-01-08T01:53:18;5.80;;;0.93;;
72601;SDS011;60644;55.858;37.390;2023-01-08T01:55:53;5.45;;;1.48;;
72601;SDS011;60644;55.858;37.390;2023-01-08T01:58:22;9.77;;;1.92;;
72601;SDS011;60644;55.858;37.390;2023-01-08T02:00:50;5.10;;;1.43;;
72601;SDS011;60644;55.858;37.390;2023-01-08T02:03:20;5.35;;;1.83;;
72601;SDS011;60644;55.858;37.390;2023-01-08T02:08:34;4.50;;;1.08;;
72601;SDS011;60644;55.858;37.390;2023-01-08T02:11:14;1.27;;;0.52;;
72601;SDS011;60644;55.858;37.390;2023-01-08T02:14:34;3.75;;;1.15;;
72601;SDS011;60644;55.858;37.390;2023-01-08T02:22:29;2.65;;;0.90;;
72601;SDS011;60644;55.858;37.390;2023-01-08T02:27:31;3.87;;;0.80;;
72601;SDS011;60644;55.858;37.390;2023-01-08T02:30:00;4.55;;;0.73;;
72601;SDS011;60644;55.858;37.390;2023-01-08T02:32:35;7.97;;;1.80;;
72601;SDS011;60644;55.858;37.390;2023-01-08T02:35:03;9.83;;;2.00;;
72601;SDS011;60644;55.858;37.390;2023-01-08T02:37:30;3.10;;;0.57;;
72601;SDS011;60644;55.858;37.390;2023-01-08T02:40:41;5.10;;;1.58;;
72601;SDS011;60644;55.858;37.390;2023-01-08T02:43:09;4.97;;;1.90;;
72601;SDS011;60644;55.858;37.390;2023-01-08T02:48:45;5.50;;;1.17;;
72601;SDS011;60644;55.858;37.390;2023-01-08T02:51:27;7.82;;;1.73;;
72601;SDS011;60644;55.858;37.390;2023-01-08T02:53:58;5.55;;;1.23;;
72601;SDS011;60644;55.858;37.390;2023-01-08T02:56:29;5.03;;;1.10;;
72601;SDS011;60644;55.858;37.390;2023-01-08T02:58:58;4.07;;;0.63;;
72601;SDS011;60644;55.858;37.390;2023-01-08T03:01:26;10.47;;;1.43;;
72601;SDS011;60644;55.858;37.390;2023-01-08T03:03:55;5.60;;;1.13;;
72601;SDS011;60644;55.858;37.390;2023-01-08T03:06:23;4.53;;;0.93;;
72601;SDS011;60644;55.858;37.390;2023-01-08T03:08:53;4.07;;;0.83;;
72601;SDS011;60644;55.858;37.390;2023-01-08T03:11:20;2.92;;;0.77;;
72601;SDS011;60644;55.858;37.390;2023-01-08T03:16:33;7.80;;;2.33;;
72601;SDS011;60644;55.858;37.390;2023-01-08T03:19:07;2.97;;;0.82;;
72601;SDS011;60644;55.858;37.390;2023-01-08T03:21:46;7.35;;;2.60;;
72601;SDS011;60644;55.858;37.390;2023-01-08T03:24:15;4.47;;;0.55;;
72601;SDS011;60644;55.858;37.390;2023-01-08T03:26:45;4.47;;;1.03;;
72601;SDS011;60644;55.858;37.390;2023-01-08T03:29:13;7.72;;;1.73;;
72601;SDS011;60644;55.858;37.390;2023-01-08T03:31:42;3.72;;;1.00;;
72601;SDS011;60644;55.858;37.390;2023-01-08T03:34:10;4.63;;;0.43;;
72601;SDS011;60644;55.858;37.390;2023-01-08T03:36:39;5.57;;;0.55;;
72601;SDS011;60644;55.858;37.390;2023-01-08T03:39:11;2.65;;;0.35;;
72601;SDS011;60644;55.858;37.390;2023-01-08T03:41:41;3.92;;;0.80;;
72601;SDS011;60644;55.858;37.390;2023-01-08T03:44:07;5.63;;;1.15;;
72601;SDS011;60644;55.858;37.390;2023-01-08T03:46:35;5.63;;;0.88;;
72601;SDS011;60644;55.858;37.390;2023-01-08T03:49:04;3.10;;;0.75;;
72601;SDS011;60644;55.858;37.390;2023-01-08T03:51:39;4.72;;;0.95;;
72601;SDS011;60644;55.858;37.390;2023-01-08T03:54:13;6.82;;;1.15;;
72601;SDS011;60644;55.858;37.390;2023-01-08T03:56:40;3.85;;;0.77;;
72601;SDS011;60644;55.858;37.390;2023-01-08T03:59:06;6.50;;;1.47;;
72601;SDS011;60644;55.858;37.390;2023-01-08T04:01:33;3.53;;;0.70;;
72601;SDS011;60644;55.858;37.390;2023-01-08T04:03:59;2.53;;;0.40;;
72601;SDS011;60644;55.858;37.390;2023-01-08T04:06:25;2.90;;;0.33;;
72601;SDS011;60644;55.858;37.390;2023-01-08T04:08:50;4.18;;;1.23;;
72601;SDS011;60644;55.858;37.390;2023-01-08T04:11:16;3.37;;;0.47;;
72601;SDS011;60644;55.858;37.390;2023-01-08T04:13:43;0.60;;;0.20;;
72601;SDS011;60644;55.858;37.390;2023-01-08T04:16:08;2.03;;;0.63;;
72601;SDS011;60644;55.858;37.390;2023-01-08T04:18:34;3.40;;;0.77;;
72601;SDS011;60644;55.858;37.390;2023-01-08T04:21:00;4.32;;;0.82;;
72601;SDS011;60644;55.858;37.390;2023-01-08T04:23:26;1.73;;;0.30;;
72601;SDS011;60644;55.858;37.390;2023-01-08T04:25:52;5.13;;;0.60;;
72601;SDS011;60644;55.858;37.390;2023-01-08T04:28:18;5.10;;;0.80;;
72601;SDS011;60644;55.858;37.390;2023-01-08T04:30:44;4.07;;;0.70;;
72601;SDS011;60644;55.858;37.390;2023-01-08T04:33:09;5.18;;;1.10;;
72601;SDS011;60644;55.858;37.390;2023-01-08T04:35:35;3.53;;;0.80;;
72601;SDS011;60644;55.858;37.390;2023-01-08T04:38:01;4.38;;;0.88;;
72601;SDS011;60644;55.858;37.390;2023-01-08T04:40:27;3.25;;;0.52;;
72601;SDS011;60644;55.858;37.390;2023-01-08T04:42:53;1.95;;;0.60;;
72601;SDS011;60644;55.858;37.390;2023-01-08T04:45:19;6.07;;;1.15;;
72601;SDS011;60644;55.858;37.390;2023-01-08T04:47:45;4.40;;;0.70;;
72601;SDS011;60644;55.858;37.390;2023-01-08T04:50:11;6.70;;;0.70;;
72601;SDS011;60644;55.858;37.390;2023-01-08T04:52:37;3.22;;;0.60;;
72601;SDS011;60644;55.858;37.390;2023-01-08T04:55:02;1.40;;;0.30;;
72601;SDS011;60644;55.858;37.390;2023-01-08T04:57:29;3.38;;;0.98;;
72601;SDS011;60644;55.858;37.390;2023-01-08T04:59:55;5.35;;;0.43;;
72601;SDS011;60644;55.858;37.390;2023-01-08T05:02:20;4.10;;;1.10;;
72601;SDS011;60644;55.858;37.390;2023-01-08T05:04:46;4.97;;;1.02;;
72601;SDS011;60644;55.858;37.390;2023-01-08T05:07:12;2.47;;;0.50;;
72601;SDS011;60644;55.858;37.390;2023-01-08T05:09:38;4.85;;;0.95;;
72601;SDS011;60644;55.858;37.390;2023-01-08T05:12:04;4.38;;;0.65;;
72601;SDS011;60644;55.858;37.390;2023-01-08T05:14:30;5.43;;;1.20;;
72601;SDS011;60644;55.858;37.390;2023-01-08T05:16:56;2.45;;;0.50;;
72601;SDS011;60644;55.858;37.390;2023-01-08T05:19:22;5.43;;;0.63;;
72601;SDS011;60644;55.858;37.390;2023-01-08T05:21:48;3.63;;;0.90;;
72601;SDS011;60644;55.858;37.390;2023-01-08T05:24:14;4.10;;;1.15;;
72601;SDS011;60644;55.858;37.390;2023-01-08T05:26:39;3.70;;;0.77;;
72601;SDS011;60644;55.858;37.390;2023-01-08T05:29:05;3.80;;;0.65;;
72601;SDS011;60644;55.858;37.390;2023-01-08T05:31:31;5.07;;;1.10;;
72601;SDS011;60644;55.858;37.390;2023-01-08T05:33:57;3.33;;;0.63;;
72601;SDS011;60644;55.858;37.390;2023-01-08T05:36:23;4.20;;;0.77;;
72601;SDS011;60644;55.858;37.390;2023-01-08T05:38:49;4.95;;;0.80;;
72601;SDS011;60644;55.858;37.390;2023-01-08T05:41:15;3.75;;;0.52;;
72601;SDS011;60644;55.858;37.390;2023-01-08T05:43:41;4.47;;;1.27;;
72601;SDS011;60644;55.858;37.390;2023-01-08T05:46:07;3.72;;;0.80;;
72601;SDS011;60644;55.858;37.390;2023-01-08T05:48:33;9.55;;;0.85;;
72601;SDS011;60644;55.858;37.390;2023-01-08T05:51:00;3.40;;;1.07;;
72601;SDS011;60644;55.858;37.390;2023-01-08T05:53:26;5.13;;;1.40;;
72601;SDS011;60644;55.858;37.390;2023-01-08T05:55:56;4.28;;;0.57;;
72601;SDS011;60644;55.858;37.390;2023-01-08T05:58:23;4.28;;;0.85;;
72601;SDS011;60644;55.858;37.390;2023-01-08T06:00:51;7.72;;;1.75;;
72601;SDS011;60644;55.858;37.390;2023-01-08T06:03:21;3.67;;;1.17;;
72601;SDS011;60644;55.858;37.390;2023-01-08T06:05:47;2.23;;;0.80;;
72601;SDS011;60644;55.858;37.390;2023-01-08T06:08:14;3.63;;;1.45;;
72601;SDS011;60644;55.858;37.390;2023-01-08T06:10:40;4.13;;;1.40;;
72601;SDS011;60644;55.858;37.390;2023-01-08T06:13:06;7.00;;;1.70;;
72601;SDS011;60644;55.858;37.390;2023-01-08T06:15:34;5.60;;;0.88;;
72601;SDS011;60644;55.858;37.390;2023-01-08T06:18:03;4.45;;;1.13;;
72601;SDS011;60644;55.858;37.390;2023-01-08T06:20:29;5.53;;;1.83;;
72601;SDS011;60644;55.858;37.390;2023-01-08T06:22:55;4.00;;;0.88;;
72601;SDS011;60644;55.858;37.390;2023-01-08T06:25:21;5.43;;;1.20;;
72601;SDS011;60644;55.858;37.390;2023-01-08T06:27:53;4.93;;;0.80;;
72601;SDS011;60644;55.858;37.390;2023-01-08T06:30:19;3.85;;;1.08;;
72601;SDS011;60644;55.858;37.390;2023-01-08T06:32:45;2.47;;;0.40;;
72601;SDS011;60644;55.858;37.390;2023-01-08T06:35:11;5.93;;;0.85;;
72601;SDS011;60644;55.858;37.390;2023-01-08T06:37:37;6.50;;;1.23;;
72601;SDS011;60644;55.858;37.390;2023-01-08T06:40:02;2.58;;;0.70;;
72601;SDS011;60644;55.858;37.390;2023-01-08T06:42:29;5.22;;;0.65;;
72601;SDS011;60644;55.858;37.390;2023-01-08T06:44:55;3.10;;;0.27;;
72601;SDS011;60644;55.858;37.390;2023-01-08T06:47:20;3.65;;;0.98;;
72601;SDS011;60644;55.858;37.390;2023-01-08T06:49:46;3.97;;;1.00;;
72601;SDS011;60644;55.858;37.390;2023-01-08T06:52:12;7.15;;;1.02;;
72601;SDS011;60644;55.858;37.390;2023-01-08T06:54:38;5.07;;;1.00;;
72601;SDS011;60644;55.858;37.390;2023-01-08T06:57:04;2.60;;;0.73;;
72601;SDS011;60644;55.858;37.390;2023-01-08T06:59:30;8.18;;;1.58;;
72601;SDS011;60644;55.858;37.390;2023-01-08T07:01:56;2.57;;;0.33;;
72601;SDS011;60644;55.858;37.390;2023-01-08T07:04:22;3.88;;;0.98;;
72601;SDS011;60644;55.858;37.390;2023-01-08T07:06:48;5.47;;;0.43;;
72601;SDS011;60644;55.858;37.390;2023-01-08T07:09:14;4.80;;;1.37;;
72601;SDS011;60644;55.858;37.390;2023-01-08T07:11:40;5.10;;;0.77;;
72601;SDS011;60644;55.858;37.390;2023-01-08T07:14:10;4.88;;;0.85;;
72601;SDS011;60644;55.858;37.390;2023-01-08T07:16:35;4.60;;;1.00;;
72601;SDS011;60644;55.858;37.390;2023-01-08T07:19:04;5.18;;;1.27;;
72601;SDS011;60644;55.858;37.390;2023-01-08T07:21:30;6.22;;;1.60;;
72601;SDS011;60644;55.858;37.390;2023-01-08T07:23:56;5.00;;;1.30;;
72601;SDS011;60644;55.858;37.390;2023-01-08T07:26:23;3.17;;;0.60;;
72601;SDS011;60644;55.858;37.390;2023-01-08T07:28:49;4.72;;;0.77;;
72601;SDS011;60644;55.858;37.390;2023-01-08T07:31:15;4.63;;;0.63;;
72601;SDS011;60644;55.858;37.390;2023-01-08T07:33:41;6.65;;;0.98;;
72601;SDS011;60644;55.858;37.390;2023-01-08T07:36:06;4.20;;;1.70;;
72601;SDS011;60644;55.858;37.390;2023-01-08T07:38:33;5.50;;;1.92;;
72601;SDS011;60644;55.858;37.390;2023-01-08T07:40:58;8.23;;;2.47;;
72601;SDS011;60644;55.858;37.390;2023-01-08T07:43:24;12.37;;;2.63;;
72601;SDS011;60644;55.858;37.390;2023-01-08T07:45:50;5.95;;;1.00;;
72601;SDS011;60644;55.858;37.390;2023-01-08T07:48:16;5.45;;;1.25;;
72601;SDS011;60644;55.858;37.390;2023-01-08T07:50:42;3.80;;;0.90;;
72601;SDS011;60644;55.858;37.390;2023-01-08T07:53:08;6.03;;;1.20;;
72601;SDS011;60644;55.858;37.390;2023-01-08T07:55:36;4.75;;;0.90;;
72601;SDS011;60644;55.858;37.390;2023-01-08T07:58:09;3.27;;;0.80;;
72601;SDS011;60644;55.858;37.390;2023-01-08T08:00:36;2.08;;;0.45;;
72601;SDS011;60644;55.858;37.390;2023-01-08T08:03:06;1.90;;;0.77;;
72601;SDS011;60644;55.858;37.390;2023-01-08T08:05:35;2.67;;;0.73;;
72601;SDS011;60644;55.858;37.390;2023-01-08T08:08:06;4.93;;;1.27;;
72601;SDS011;60644;55.858;37.390;2023-01-08T08:10:33;3.22;;;0.90;;
72601;SDS011;60644;55.858;37.390;2023-01-08T08:12:59;5.17;;;1.30;;
72601;SDS011;60644;55.858;37.390;2023-01-08T08:15:26;3.67;;;1.05;;
72601;SDS011;60644;55.858;37.390;2023-01-08T08:17:52;5.20;;;0.90;;
72601;SDS011;60644;55.858;37.390;2023-01-08T08:20:18;6.32;;;1.27;;
72601;SDS011;60644;55.858;37.390;2023-01-08T08:22:45;1.83;;;0.35;;
72601;SDS011;60644;55.858;37.390;2023-01-08T08:25:11;4.05;;;1.10;;
72601;SDS011;60644;55.858;37.390;2023-01-08T08:27:40;4.22;;;1.45;;
72601;SDS011;60644;55.858;37.390;2023-01-08T08:30:07;5.43;;;1.52;;
72601;SDS011;60644;55.858;37.390;2023-01-08T08:32:34;2.15;;;0.80;;
72601;SDS011;60644;55.858;37.390;2023-01-08T08:35:00;5.40;;;1.13;;
72601;SDS011;60644;55.858;37.390;2023-01-08T08:37:28;7.90;;;1.70;;
72601;SDS011;60644;55.858;37.390;2023-01-08T08:39:54;4.93;;;1.20;;
72601;SDS011;60644;55.858;37.390;2023-01-08T08:42:20;6.30;;;1.25;;
72601;SDS011;60644;55.858;37.390;2023-01-08T08:44:46;4.27;;;1.33;;
72601;SDS011;60644;55.858;37.390;2023-01-08T08:47:12;5.68;;;1.35;;
72601;SDS011;60644;55.858;37.390;2023-01-08T08:49:38;3.85;;;0.98;;
72601;SDS011;60644;55.858;37.390;2023-01-08T08:52:04;6.57;;;1.20;;
72601;SDS011;60644;55.858;37.390;2023-01-08T08:54:30;5.13;;;1.00;;
72601;SDS011;60644;55.858;37.390;2023-01-08T08:56:56;4.80;;;1.77;;
72601;SDS011;60644;55.858;37.390;2023-01-08T08:59:22;4.95;;;1.50;;
72601;SDS011;60644;55.858;37.390;2023-01-08T09:01:47;3.40;;;1.13;;
72601;SDS011;60644;55.858;37.390;2023-01-08T09:04:13;6.30;;;2.00;;
72601;SDS011;60644;55.858;37.390;2023-01-08T09:06:39;5.57;;;1.77;;
72601;SDS011;60644;55.858;37.390;2023-01-08T09:09:05;6.83;;;1.73;;
72601;SDS011;60644;55.858;37.390;2023-01-08T09:11:31;4.38;;;0.65;;
72601;SDS011;60644;55.858;37.390;2023-01-08T09:13:56;10.13;;;2.73;;
72601;SDS011;60644;55.858;37.390;2023-01-08T09:16:22;6.63;;;2.30;;
72601;SDS011;60644;55.858;37.390;2023-01-08T09:18:48;10.15;;;2.80;;
72601;SDS011;60644;55.858;37.390;2023-01-08T09:21:14;5.03;;;1.23;;
72601;SDS011;60644;55.858;37.390;2023-01-08T09:23:40;7.30;;;2.10;;
72601;SDS011;60644;55.858;37.390;2023-01-08T09:26:06;5.40;;;1.47;;
72601;SDS011;60644;55.858;37.390;2023-01-08T09:28:33;7.72;;;2.65;;
72601;SDS011;60644;55.858;37.390;2023-01-08T09:30:59;8.77;;;2.20;;
72601;SDS011;60644;55.858;37.390;2023-01-08T09:33:28;8.97;;;2.00;;
72601;SDS011;60644;55.858;37.390;2023-01-08T09:35:55;13.07;;;2.40;;
72601;SDS011;60644;55.858;37.390;2023-01-08T09:38:21;11.85;;;3.20;;
72601;SDS011;60644;55.858;37.390;2023-01-08T09:41:02;15.73;;;3.50;;
72601;SDS011;60644;55.858;37.390;2023-01-08T09:43:46;5.33;;;1.73;;
72601;SDS011;60644;55.858;37.390;2023-01-08T09:46:14;7.43;;;2.17;;
72601;SDS011;60644;55.858;37.390;2023-01-08T09:48:43;5.43;;;1.63;;
72601;SDS011;60644;55.858;37.390;2023-01-08T09:51:14;6.90;;;1.93;;
72601;SDS011;60644;55.858;37.390;2023-01-08T09:53:42;12.30;;;2.67;;
72601;SDS011;60644;55.858;37.390;2023-01-08T09:56:13;11.55;;;3.17;;
72601;SDS011;60644;55.858;37.390;2023-01-08T10:01:11;8.00;;;2.45;;
72601;SDS011;60644;55.858;37.390;2023-01-08T10:03:44;3.97;;;1.25;;
72601;SDS011;60644;55.858;37.390;2023-01-08T10:06:14;6.78;;;2.00;;
72601;SDS011;60644;55.858;37.390;2023-01-08T10:08:41;9.37;;;2.90;;
72601;SDS011;60644;55.858;37.390;2023-01-08T10:11:07;9.90;;;2.55;;
72601;SDS011;60644;55.858;37.390;2023-01-08T10:13:36;9.15;;;3.50;;
72601;SDS011;60644;55.858;37.390;2023-01-08T10:16:07;4.30;;;1.27;;
72601;SDS011;60644;55.858;37.390;2023-01-08T10:18:35;5.03;;;1.50;;
72601;SDS011;60644;55.858;37.390;2023-01-08T10:21:02;7.65;;;2.25;;
72601;SDS011;60644;55.858;37.390;2023-01-08T10:23:28;4.93;;;1.75;;
72601;SDS011;60644;55.858;37.390;2023-01-08T10:25:55;12.00;;;2.70;;
72601;SDS011;60644;55.858;37.390;2023-01-08T10:28:23;8.57;;;2.47;;
72601;SDS011;60644;55.858;37.390;2023-01-08T10:31:03;8.85;;;2.42;;
72601;SDS011;60644;55.858;37.390;2023-01-08T10:36:05;7.70;;;2.53;;
72601;SDS011;60644;55.858;37.390;2023-01-08T10:38:50;8.55;;;2.80;;
72601;SDS011;60644;55.858;37.390;2023-01-08T10:41:20;11.32;;;2.83;;
72601;SDS011;60644;55.858;37.390;2023-01-08T10:46:22;7.35;;;2.17;;
72601;SDS011;60644;55.858;37.390;2023-01-08T10:49:05;14.18;;;3.22;;
72601;SDS011;60644;55.858;37.390;2023-01-08T10:51:38;11.02;;;3.22;;
72601;SDS011;60644;55.858;37.390;2023-01-08T10:54:14;10.37;;;3.40;;
72601;SDS011;60644;55.858;37.390;2023-01-08T10:56:52;9.63;;;1.95;;
72601;SDS011;60644;55.858;37.390;2023-01-08T10:59:19;9.55;;;2.42;;
72601;SDS011;60644;55.858;37.390;2023-01-08T11:01:46;8.13;;;1.53;;
72601;SDS011;60644;55.858;37.390;2023-01-08T11:04:19;8.82;;;2.47;;
72601;SDS011;60644;55.858;37.390;2023-01-08T11:07:02;6.25;;;1.63;;
72601;SDS011;60644;55.858;37.390;2023-01-08T11:09:30;8.70;;;2.58;;
72601;SDS011;60644;55.858;37.390;2023-01-08T11:11:58;9.50;;;1.60;;
72601;SDS011;60644;55.858;37.390;2023-01-08T11:16:53;11.02;;;4.25;;
72601;SDS011;60644;55.858;37.390;2023-01-08T11:22:35;11.65;;;3.30;;
72601;SDS011;60644;55.858;37.390;2023-01-08T11:24:43;10.13;;;3.55;;
72601;SDS011;60644;55.858;37.390;2023-01-08T11:29:56;5.50;;;1.77;;
72601;SDS011;60644;55.858;37.390;2023-01-08T11:32:37;6.70;;;1.10;;
72601;SDS011;60644;55.858;37.390;2023-01-08T11:37:55;6.85;;;2.42;;
72601;SDS011;60644;55.858;37.390;2023-01-08T11:43:06;7.53;;;2.85;;
72601;SDS011;60644;55.858;37.390;2023-01-08T11:45:49;8.50;;;2.83;;
72601;SDS011;60644;55.858;37.390;2023-01-08T11:49:03;11.10;;;2.10;;
72601;SDS011;60644;55.858;37.390;2023-01-08T11:57:39;6.45;;;1.92;;
72601;SDS011;60644;55.858;37.390;2023-01-08T12:03:01;5.32;;;1.77;;
72601;SDS011;60644;55.858;37.390;2023-01-08T12:05:40;15.57;;;3.45;;
72601;SDS011;60644;55.858;37.390;2023-01-08T12:21:31;7.13;;;2.00;;
72601;SDS011;60644;55.858;37.390;2023-01-08T12:24:09;12.43;;;2.28;;
72601;SDS011;60644;55.858;37.390;2023-01-08T12:26:47;9.03;;;2.50;;
72601;SDS011;60644;55.858;37.390;2023-01-08T12:37:23;12.35;;;4.65;;
72601;SDS011;60644;55.858;37.390;2023-01-08T12:40:03;17.15;;;5.00;;
72601;SDS011;60644;55.858;37.390;2023-01-08T12:42:57;6.33;;;2.13;;
72601;SDS011;60644;55.858;37.390;2023-01-08T12:48:06;12.98;;;4.35;;
72601;SDS011;60644;55.858;37.390;2023-01-08T12:58:30;16.40;;;4.13;;
72601;SDS011;60644;55.858;37.390;2023-01-08T13:04:02;12.57;;;3.75;;
72601;SDS011;60644;55.858;37.390;2023-01-08T13:06:29;9.13;;;2.80;;
72601;SDS011;60644;55.858;37.390;2023-01-08T13:08:55;8.05;;;3.33;;
72601;SDS011;60644;55.858;37.390;2023-01-08T13:11:30;9.82;;;3.15;;
72601;SDS011;60644;55.858;37.390;2023-01-08T13:14:03;9.10;;;2.50;;
72601;SDS011;60644;55.858;37.390;2023-01-08T13:16:38;10.43;;;3.10;;
72601;SDS011;60644;55.858;37.390;2023-01-08T13:19:17;11.80;;;2.85;;
72601;SDS011;60644;55.858;37.390;2023-01-08T13:21:49;7.60;;;2.45;;
72601;SDS011;60644;55.858;37.390;2023-01-08T13:24:37;16.93;;;4.63;;
72601;SDS011;60644;55.858;37.390;2023-01-08T13:29:44;12.55;;;3.75;;
72601;SDS011;60644;55.858;37.390;2023-01-08T13:37:42;15.20;;;5.63;;
72601;SDS011;60644;55.858;37.390;2023-01-08T13:43:00;29.77;;;8.97;;
72601;SDS011;60644;55.858;37.390;2023-01-08T13:45:29;17.00;;;5.30;;
72601;SDS011;60644;55.858;37.390;2023-01-08T13:47:57;16.77;;;4.80;;
72601;SDS011;60644;55.858;37.390;2023-01-08T13:50:25;14.77;;;5.22;;
72601;SDS011;60644;55.858;37.390;2023-01-08T13:52:58;10.70;;;2.80;;
72601;SDS011;60644;55.858;37.390;2023-01-08T13:55:31;9.57;;;3.65;;
72601;SDS011;60644;55.858;37.390;2023-01-08T13:58:51;14.27;;;4.60;;
72601;SDS011;60644;55.858;37.390;2023-01-08T14:00:56;16.40;;;3.73;;
72601;SDS011;60644;55.858;37.390;2023-01-08T14:03:31;14.50;;;4.80;;
72601;SDS011;60644;55.858;37.390;2023-01-08T14:08:47;13.75;;;3.28;;
72601;SDS011;60644;55.858;37.390;2023-01-08T14:11:18;6.20;;;2.85;;
72601;SDS011;60644;55.858;37.390;2023-01-08T14:13:46;11.68;;;3.42;;
72601;SDS011;60644;55.858;37.390;2023-01-08T14:16:13;8.98;;;3.47;;
72601;SDS011;60644;55.858;37.390;2023-01-08T14:18:40;10.67;;;2.93;;
72601;SDS011;60644;55.858;37.390;2023-01-08T14:21:08;10.75;;;3.25;;
72601;SDS011;60644;55.858;37.390;2023-01-08T14:23:47;9.93;;;3.72;;
72601;SDS011;60644;55.858;37.390;2023-01-08T14:26:24;10.70;;;2.47;;
72601;SDS011;60644;55.858;37.390;2023-01-08T14:28:55;11.75;;;3.13;;
72601;SDS011;60644;55.858;37.390;2023-01-08T14:31:22;11.98;;;3.75;;
72601;SDS011;60644;55.858;37.390;2023-01-08T14:33:49;17.33;;;6.10;;
72601;SDS011;60644;55.858;37.390;2023-01-08T14:36:17;17.52;;;6.22;;
72601;SDS011;60644;55.858;37.390;2023-01-08T14:38:44;16.95;;;6.13;;
72601;SDS011;60644;55.858;37.390;2023-01-08T14:41:15;15.75;;;4.03;;
72601;SDS011;60644;55.858;37.390;2023-01-08T14:44:16;17.87;;;4.37;;
72601;SDS011;60644;55.858;37.390;2023-01-08T14:46:42;13.05;;;3.97;;
72601;SDS011;60644;55.858;37.390;2023-01-08T14:49:20;13.82;;;4.97;;
72601;SDS011;60644;55.858;37.390;2023-01-08T14:51:49;17.07;;;5.37;;
72601;SDS011;60644;55.858;37.390;2023-01-08T14:54:17;19.23;;;7.85;;
72601;SDS011;60644;55.858;37.390;2023-01-08T14:56:51;12.80;;;4.95;;
72601;SDS011;60644;55.858;37.390;2023-01-08T14:59:19;12.55;;;4.97;;
72601;SDS011;60644;55.858;37.390;2023-01-08T15:01:50;16.23;;;5.30;;
72601;SDS011;60644;55.858;37.390;2023-01-08T15:04:19;12.10;;;3.92;;
72601;SDS011;60644;55.858;37.390;2023-01-08T15:06:46;18.23;;;5.85;;
72601;SDS011;60644;55.858;37.390;2023-01-08T15:09:18;19.33;;;7.83;;
72601;SDS011;60644;55.858;37.390;2023-01-08T15:11:53;14.35;;;6.30;;
72601;SDS011;60644;55.858;37.390;2023-01-08T15:14:24;13.07;;;4.93;;
72601;SDS011;60644;55.858;37.390;2023-01-08T15:16:55;17.50;;;5.60;;
72601;SDS011;60644;55.858;37.390;2023-01-08T15:19:29;10.02;;;3.30;;
72601;SDS011;60644;55.858;37.390;2023-01-08T15:22:03;12.57;;;3.45;;
72601;SDS011;60644;55.858;37.390;2023-01-08T15:24:36;9.40;;;3.93;;
72601;SDS011;60644;55.858;37.390;2023-01-08T15:27:14;11.43;;;3.10;;
72601;SDS011;60644;55.858;37.390;2023-01-08T15:29:47;9.60;;;2.42;;
72601;SDS011;60644;55.858;37.390;2023-01-08T15:34:41;12.57;;;3.38;;
72601;SDS011;60644;55.858;37.390;2023-01-08T15:37:08;10.48;;;3.95;;
72601;SDS011;60644;55.858;37.390;2023-01-08T15:39:35;8.87;;;3.10;;
72601;SDS011;60644;55.858;37.390;2023-01-08T15:42:10;14.15;;;4.05;;
72601;SDS011;60644;55.858;37.390;2023-01-08T15:45:05;10.90;;;4.65;;
72601;SDS011;60644;55.858;37.390;2023-01-08T15:47:56;8.85;;;2.40;;
72601;SDS011;60644;55.858;37.390;2023-01-08T15:50:23;8.57;;;2.20;;
72601;SDS011;60644;55.858;37.390;2023-01-08T15:52:50;8.90;;;2.42;;
72601;SDS011;60644;55.858;37.390;2023-01-08T15:55:20;8.25;;;2.42;;
72601;SDS011;60644;55.858;37.390;2023-01-08T15:57:47;6.23;;;2.00;;
72601;SDS011;60644;55.858;37.390;2023-01-08T16:00:14;7.90;;;1.55;;
72601;SDS011;60644;55.858;37.390;2023-01-08T16:02:42;8.95;;;2.42;;
72601;SDS011;60644;55.858;37.390;2023-01-08T16:05:09;9.85;;;2.35;;
72601;SDS011;60644;55.858;37.390;2023-01-08T16:07:35;10.68;;;2.42;;
72601;SDS011;60644;55.858;37.390;2023-01-08T16:10:02;9.10;;;2.10;;
72601;SDS011;60644;55.858;37.390;2023-01-08T16:12:28;8.23;;;3.55;;
72601;SDS011;60644;55.858;37.390;2023-01-08T16:14:54;14.40;;;4.57;;
72601;SDS011;60644;55.858;37.390;2023-01-08T16:17:20;8.10;;;2.33;;
72601;SDS011;60644;55.858;37.390;2023-01-08T16:19:46;10.23;;;2.00;;
72601;SDS011;60644;55.858;37.390;2023-01-08T16:22:15;4.78;;;1.88;;
72601;SDS011;60644;55.858;37.390;2023-01-08T16:24:40;5.85;;;2.00;;